sensor_id;sensor_type;location;lat;lon;timestamp;pressure;altitude;pressure_sealevel;temperature;humidity
41312;BME280;27061;41.648;24.568;2023-01-30T00:00:54;85565.50;;;-1.03;73.74
41312;BME280;27061;41.648;24.568;2023-01-30T00:03:22;85647.78;;;-0.37;74.15
41312;BME280;27061;41.648;24.568;2023-01-30T00:05:50;85601.09;;;-0.59;74.17
41312;BME280;27061;41.648;24.568;2023-01-30T00:08:17;85581.75;;;-0.74;74.40
41312;BME280;27061;41.648;24.568;2023-01-30T00:10:45;85642.00;;;-0.21;74.98
41312;BME280;27061;41.648;24.568;2023-01-30T00:13:12;85609.41;;;-0.51;75.02
41312;BME280;27061;41.648;24.568;2023-01-30T00:15:40;85654.28;;;-0.18;74.43
41312;BME280;27061;41.648;24.568;2023-01-30T00:18:08;85648.28;;;-0.13;74.69
41312;BME280;27061;41.648;24.568;2023-01-30T00:20:35;85620.63;;;-0.35;75.04
41312;BME280;27061;41.648;24.568;2023-01-30T00:23:03;85600.25;;;-0.34;74.73
41312;BME280;27061;41.648;24.568;2023-01-30T00:25:30;85642.34;;;-0.03;75.04
41312;BME280;27061;41.648;24.568;2023-01-30T00:27:59;85598.94;;;-0.31;74.87
41312;BME280;27061;41.648;24.568;2023-01-30T00:30:28;85626.72;;;-0.03;74.99
41312;BME280;27061;41.648;24.568;2023-01-30T00:32:57;85586.63;;;-0.36;74.91
41312;BME280;27061;41.648;24.568;2023-01-30T00:35:25;85610.91;;;-0.10;75.04
41312;BME280;27061;41.648;24.568;2023-01-30T00:37:55;85593.91;;;-0.11;74.68
41312;BME280;27061;41.648;24.568;2023-01-30T00:40:24;85614.78;;;0.15;75.14
41312;BME280;27061;41.648;24.568;2023-01-30T00:42:52;85617.59;;;0.19;75.10
41312;BME280;27061;41.648;24.568;2023-01-30T00:45:39;85621.09;;;0.25;74.71
41312;BME280;27061;41.648;24.568;2023-01-30T00:48:27;85581.94;;;0.05;74.32
41312;BME280;27061;41.648;24.568;2023-01-30T00:50:55;85595.88;;;0.23;74.83
41312;BME280;27061;41.648;24.568;2023-01-30T00:53:22;85603.47;;;0.28;75.11
41312;BME280;27061;41.648;24.568;2023-01-30T00:55:53;85571.75;;;0.05;74.43
41312;BME280;27061;41.648;24.568;2023-01-30T00:58:21;85566.91;;;0.02;74.04
41312;BME280;27061;41.648;24.568;2023-01-30T01:00:49;85589.75;;;0.22;73.86
41312;BME280;27061;41.648;24.568;2023-01-30T01:03:17;85600.78;;;0.30;74.31
41312;BME280;27061;41.648;24.568;2023-01-30T01:05:45;85562.75;;;-0.04;74.26
41312;BME280;27061;41.648;24.568;2023-01-30T01:08:13;85567.59;;;0.02;74.01
41312;BME280;27061;41.648;24.568;2023-01-30T01:10:40;85539.56;;;-0.07;73.61
41312;BME280;27061;41.648;24.568;2023-01-30T01:13:07;85595.44;;;0.36;73.29
41312;BME280;27061;41.648;24.568;2023-01-30T01:15:36;85569.78;;;0.10;72.64
41312;BME280;27061;41.648;24.568;2023-01-30T01:18:04;85536.84;;;-0.07;72.67
41312;BME280;27061;41.648;24.568;2023-01-30T01:20:31;85595.47;;;0.39;72.47
41312;BME280;27061;41.648;24.568;2023-01-30T01:22:58;85594.19;;;0.42;71.80
41312;BME280;27061;41.648;24.568;2023-01-30T01:25:25;85588.72;;;0.42;71.06
41312;BME280;27061;41.648;24.568;2023-01-30T01:27:53;85582.38;;;0.29;70.62
41312;BME280;27061;41.648;24.568;2023-01-30T01:30:20;85532.78;;;-0.06;69.88
41312;BME280;27061;41.648;24.568;2023-01-30T01:32:47;85535.50;;;-0.06;70.11
41312;BME280;27061;41.648;24.568;2023-01-30T01:35:14;85566.31;;;0.05;71.93
41312;BME280;27061;41.648;24.568;2023-01-30T01:37:42;85576.63;;;0.13;72.58
41312;BME280;27061;41.648;24.568;2023-01-30T01:40:16;85600.78;;;0.30;71.81
41312;BME280;27061;41.648;24.568;2023-01-30T01:43:17;85589.25;;;0.34;71.17
41312;BME280;27061;41.648;24.568;2023-01-30T01:45:48;85569.34;;;0.23;70.05
41312;BME280;27061;41.648;24.568;2023-01-30T01:48:37;85578.25;;;0.26;71.45
41312;BME280;27061;41.648;24.568;2023-01-30T01:51:31;85553.47;;;0.10;70.14
41312;BME280;27061;41.648;24.568;2023-01-30T01:54:05;85554.25;;;0.16;69.48
41312;BME280;27061;41.648;24.568;2023-01-30T01:56:34;85549.34;;;0.09;69.90
41312;BME280;27061;41.648;24.568;2023-01-30T01:59:09;85523.91;;;-0.06;69.95
41312;BME280;27061;41.648;24.568;2023-01-30T02:01:39;85543.97;;;0.13;70.23
41312;BME280;27061;41.648;24.568;2023-01-30T02:04:07;85568.81;;;0.31;70.95
41312;BME280;27061;41.648;24.568;2023-01-30T02:06:37;85548.19;;;0.20;70.25
41312;BME280;27061;41.648;24.568;2023-01-30T02:09:07;85562.38;;;0.14;68.75
41312;BME280;27061;41.648;24.568;2023-01-30T02:11:41;85563.78;;;0.17;68.34
41312;BME280;27061;41.648;24.568;2023-01-30T02:14:11;85546.03;;;0.14;68.92
41312;BME280;27061;41.648;24.568;2023-01-30T02:16:40;85550.25;;;0.21;69.62
41312;BME280;27061;41.648;24.568;2023-01-30T02:25:03;85552.31;;;0.23;69.92
41312;BME280;27061;41.648;24.568;2023-01-30T02:36:25;85537.66;;;0.00;66.12
41312;BME280;27061;41.648;24.568;2023-01-30T02:47:16;85515.72;;;-0.08;67.74
41312;BME280;27061;41.648;24.568;2023-01-30T02:50:00;85524.66;;;-0.04;66.96
41312;BME280;27061;41.648;24.568;2023-01-30T02:52:30;85504.06;;;-0.13;66.16
41312;BME280;27061;41.648;24.568;2023-01-30T02:54:57;85506.81;;;-0.13;66.18
41312;BME280;27061;41.648;24.568;2023-01-30T02:57:25;85460.06;;;-0.39;66.40
41312;BME280;27061;41.648;24.568;2023-01-30T03:00:00;85427.69;;;-0.63;65.24
41312;BME280;27061;41.648;24.568;2023-01-30T03:12:36;85446.44;;;-0.79;63.86
41312;BME280;27061;41.648;24.568;2023-01-30T03:17:05;85508.94;;;-0.45;64.33
41312;BME280;27061;41.648;24.568;2023-01-30T03:19:34;85471.72;;;-0.70;64.27
41312;BME280;27061;41.648;24.568;2023-01-30T03:22:02;85500.81;;;-0.43;64.30
41312;BME280;27061;41.648;24.568;2023-01-30T03:24:29;85510.13;;;-0.52;65.79
41312;BME280;27061;41.648;24.568;2023-01-30T03:27:04;85485.88;;;-0.78;65.76
41312;BME280;27061;41.648;24.568;2023-01-30T03:29:32;85472.69;;;-0.92;66.29
41312;BME280;27061;41.648;24.568;2023-01-30T03:31:59;85438.94;;;-1.15;66.51
41312;BME280;27061;41.648;24.568;2023-01-30T03:34:26;85456.13;;;-1.04;66.47
41312;BME280;27061;41.648;24.568;2023-01-30T03:36:53;85510.16;;;-0.86;67.09
41312;BME280;27061;41.648;24.568;2023-01-30T03:39:22;85476.56;;;-1.01;66.79
41312;BME280;27061;41.648;24.568;2023-01-30T03:41:51;85463.03;;;-0.99;67.31
41312;BME280;27061;41.648;24.568;2023-01-30T03:44:19;85421.69;;;-1.29;68.38
41312;BME280;27061;41.648;24.568;2023-01-30T03:46:46;85480.19;;;-0.90;68.83
41312;BME280;27061;41.648;24.568;2023-01-30T03:49:13;85394.03;;;-1.54;68.06
41312;BME280;27061;41.648;24.568;2023-01-30T03:51:40;85498.13;;;-0.77;68.65
41312;BME280;27061;41.648;24.568;2023-01-30T03:54:07;85434.16;;;-1.16;69.38
41312;BME280;27061;41.648;24.568;2023-01-30T03:56:34;85452.00;;;-1.07;68.84
41312;BME280;27061;41.648;24.568;2023-01-30T03:59:02;85461.69;;;-0.98;68.93
41312;BME280;27061;41.648;24.568;2023-01-30T04:01:38;85493.16;;;-0.87;67.81
41312;BME280;27061;41.648;24.568;2023-01-30T04:04:05;85491.28;;;-0.78;68.43
41312;BME280;27061;41.648;24.568;2023-01-30T04:06:33;85480.28;;;-0.86;68.02
41312;BME280;27061;41.648;24.568;2023-01-30T04:09:03;85458.84;;;-1.04;67.08
41312;BME280;27061;41.648;24.568;2023-01-30T04:11:36;85447.28;;;-1.06;66.56
41312;BME280;27061;41.648;24.568;2023-01-30T04:14:03;85480.44;;;-0.78;67.29
41312;BME280;27061;41.648;24.568;2023-01-30T04:16:35;85476.19;;;-0.87;68.24
41312;BME280;27061;41.648;24.568;2023-01-30T04:19:34;85489.06;;;-0.88;69.02
41312;BME280;27061;41.648;24.568;2023-01-30T04:22:01;85487.75;;;-0.85;69.68
41312;BME280;27061;41.648;24.568;2023-01-30T04:24:29;85440.97;;;-1.15;69.26
41312;BME280;27061;41.648;24.568;2023-01-30T04:26:56;85476.72;;;-0.93;70.30
41312;BME280;27061;41.648;24.568;2023-01-30T04:29:24;85494.50;;;-0.88;70.32
41312;BME280;27061;41.648;24.568;2023-01-30T04:31:53;85464.25;;;-1.06;70.94
41312;BME280;27061;41.648;24.568;2023-01-30T04:34:23;85478.81;;;-0.91;70.13
41312;BME280;27061;41.648;24.568;2023-01-30T04:36:51;85451.22;;;-1.12;70.06
41312;BME280;27061;41.648;24.568;2023-01-30T04:39:18;85434.13;;;-1.18;69.94
41312;BME280;27061;41.648;24.568;2023-01-30T04:41:47;85450.69;;;-1.06;69.39
41312;BME280;27061;41.648;24.568;2023-01-30T04:44:14;85465.72;;;-1.01;68.56
41312;BME280;27061;41.648;24.568;2023-01-30T04:47:01;85471.38;;;-0.89;69.05
41312;BME280;27061;41.648;24.568;2023-01-30T04:49:29;85485.13;;;-0.81;69.00
41312;BME280;27061;41.648;24.568;2023-01-30T04:51:58;85434.13;;;-1.18;69.43
41312;BME280;27061;41.648;24.568;2023-01-30T04:54:25;85456.13;;;-1.04;69.82
41312;BME280;27061;41.648;24.568;2023-01-30T04:56:52;85479.69;;;-0.81;69.87
41312;BME280;27061;41.648;24.568;2023-01-30T04:59:19;85391.44;;;-1.48;69.88
41312;BME280;27061;41.648;24.568;2023-01-30T05:01:48;85489.34;;;-0.74;69.90
41312;BME280;27061;41.648;24.568;2023-01-30T05:04:15;85467.88;;;-0.93;69.16
41312;BME280;27061;41.648;24.568;2023-01-30T05:06:42;85470.16;;;-0.82;70.26
41312;BME280;27061;41.648;24.568;2023-01-30T05:09:10;85448.81;;;-0.97;71.02
41312;BME280;27061;41.648;24.568;2023-01-30T05:11:37;85437.13;;;-1.04;71.46
41312;BME280;27061;41.648;24.568;2023-01-30T05:14:04;85494.84;;;-0.69;72.18
41312;BME280;27061;41.648;24.568;2023-01-30T05:16:31;85449.41;;;-1.01;72.33
41312;BME280;27061;41.648;24.568;2023-01-30T05:18:58;85457.75;;;-0.91;72.35
41312;BME280;27061;41.648;24.568;2023-01-30T05:21:26;85449.50;;;-0.97;73.33
41312;BME280;27061;41.648;24.568;2023-01-30T05:23:56;85490.91;;;-0.64;73.93
41312;BME280;27061;41.648;24.568;2023-01-30T05:26:24;85496.44;;;-0.58;73.73
41312;BME280;27061;41.648;24.568;2023-01-30T05:28:56;85488.31;;;-0.56;74.12
41312;BME280;27061;41.648;24.568;2023-01-30T05:31:23;85470.16;;;-0.82;74.91
41312;BME280;27061;41.648;24.568;2023-01-30T05:33:51;85490.91;;;-0.62;74.83
41312;BME280;27061;41.648;24.568;2023-01-30T05:36:19;85476.53;;;-0.69;74.67
41312;BME280;27061;41.648;24.568;2023-01-30T05:38:47;85461.44;;;-0.76;74.71
41312;BME280;27061;41.648;24.568;2023-01-30T05:41:15;85440.13;;;-0.90;74.80
41312;BME280;27061;41.648;24.568;2023-01-30T05:43:43;85452.44;;;-0.85;75.51
41312;BME280;27061;41.648;24.568;2023-01-30T05:46:11;85505.56;;;-0.44;74.90
41312;BME280;27061;41.648;24.568;2023-01-30T05:48:39;85491.28;;;-0.42;75.19
41312;BME280;27061;41.648;24.568;2023-01-30T05:51:15;85498.78;;;-0.41;74.70
41312;BME280;27061;41.648;24.568;2023-01-30T05:53:43;85436.34;;;-0.75;74.34
41312;BME280;27061;41.648;24.568;2023-01-30T05:56:10;85481.84;;;-0.39;74.39
41312;BME280;27061;41.648;24.568;2023-01-30T05:58:37;85432.75;;;-0.83;74.73
41312;BME280;27061;41.648;24.568;2023-01-30T06:01:06;85487.47;;;-0.29;74.67
41312;BME280;27061;41.648;24.568;2023-01-30T06:03:35;85483.16;;;-0.40;74.93
41312;BME280;27061;41.648;24.568;2023-01-30T06:06:04;85491.56;;;-0.28;75.03
41312;BME280;27061;41.648;24.568;2023-01-30T06:08:32;85468.19;;;-0.43;74.94
41312;BME280;27061;41.648;24.568;2023-01-30T06:11:01;85466.78;;;-0.44;74.57
41312;BME280;27061;41.648;24.568;2023-01-30T06:13:28;85446.88;;;-0.55;74.39
41312;BME280;27061;41.648;24.568;2023-01-30T06:15:55;85436.53;;;-0.62;74.49
41312;BME280;27061;41.648;24.568;2023-01-30T06:18:22;85452.47;;;-0.47;74.66
41312;BME280;27061;41.648;24.568;2023-01-30T06:20:51;85495.28;;;-0.11;73.91
41312;BME280;27061;41.648;24.568;2023-01-30T06:23:19;85487.81;;;-0.09;73.90
41312;BME280;27061;41.648;24.568;2023-01-30T06:25:47;85490.56;;;-0.07;73.79
41312;BME280;27061;41.648;24.568;2023-01-30T06:28:15;85457.53;;;-0.29;73.69
41312;BME280;27061;41.648;24.568;2023-01-30T06:30:43;85466.53;;;-0.20;73.89
41312;BME280;27061;41.648;24.568;2023-01-30T06:33:10;85444.50;;;-0.37;73.78
41312;BME280;27061;41.648;24.568;2023-01-30T06:35:38;85456.16;;;-0.30;74.04
41312;BME280;27061;41.648;24.568;2023-01-30T06:38:07;85465.81;;;-0.21;74.15
41312;BME280;27061;41.648;24.568;2023-01-30T06:40:42;85494.84;;;0.05;74.17
41312;BME280;27061;41.648;24.568;2023-01-30T06:43:09;85446.59;;;-0.33;74.00
41312;BME280;27061;41.648;24.568;2023-01-30T06:45:36;85432.19;;;-0.40;74.07
41312;BME280;27061;41.648;24.568;2023-01-30T06:48:04;85447.47;;;-0.22;73.99
41312;BME280;27061;41.648;24.568;2023-01-30T06:50:31;85488.19;;;0.14;73.27
41312;BME280;27061;41.648;24.568;2023-01-30T06:53:04;85485.41;;;0.10;73.15
41312;BME280;27061;41.648;24.568;2023-01-30T06:55:33;85486.75;;;0.09;73.04
41312;BME280;27061;41.648;24.568;2023-01-30T07:00:33;85471.75;;;0.08;73.00
41312;BME280;27061;41.648;24.568;2023-01-30T07:03:01;85488.97;;;0.18;72.99
41312;BME280;27061;41.648;24.568;2023-01-30T07:05:28;85449.72;;;-0.09;73.14
41312;BME280;27061;41.648;24.568;2023-01-30T07:07:55;85411.81;;;-0.39;73.36
41312;BME280;27061;41.648;24.568;2023-01-30T07:10:22;85491.69;;;0.18;73.87
41312;BME280;27061;41.648;24.568;2023-01-30T07:12:52;85434.38;;;-0.30;74.29
41312;BME280;27061;41.648;24.568;2023-01-30T07:15:19;85463.31;;;-0.09;73.96
41312;BME280;27061;41.648;24.568;2023-01-30T07:17:46;85483.56;;;0.20;73.84
41312;BME280;27061;41.648;24.568;2023-01-30T07:20:14;85435.34;;;-0.15;73.38
41312;BME280;27061;41.648;24.568;2023-01-30T07:22:42;85474.25;;;-0.07;72.76
41312;BME280;27061;41.648;24.568;2023-01-30T07:25:14;85482.72;;;0.12;73.08
41312;BME280;27061;41.648;24.568;2023-01-30T07:27:42;85444.22;;;-0.13;73.19
41312;BME280;27061;41.648;24.568;2023-01-30T07:30:10;85451.06;;;-0.10;73.08
41312;BME280;27061;41.648;24.568;2023-01-30T07:32:37;85479.41;;;0.17;73.91
41312;BME280;27061;41.648;24.568;2023-01-30T07:35:04;85424.47;;;-0.13;74.61
41312;BME280;27061;41.648;24.568;2023-01-30T07:37:31;85482.34;;;0.29;74.33
41312;BME280;27061;41.648;24.568;2023-01-30T07:39:58;85477.66;;;0.36;73.52
41312;BME280;27061;41.648;24.568;2023-01-30T07:42:25;85478.28;;;0.32;73.79
41312;BME280;27061;41.648;24.568;2023-01-30T07:44:52;85454.25;;;0.19;73.79
41312;BME280;27061;41.648;24.568;2023-01-30T07:47:19;85479.06;;;0.39;73.96
41312;BME280;27061;41.648;24.568;2023-01-30T07:49:46;85468.16;;;0.37;74.00
41312;BME280;27061;41.648;24.568;2023-01-30T07:52:13;85467.56;;;0.45;74.38
41312;BME280;27061;41.648;24.568;2023-01-30T07:54:40;85431.09;;;0.18;74.39
41312;BME280;27061;41.648;24.568;2023-01-30T07:57:07;85466.34;;;0.52;74.45
41312;BME280;27061;41.648;24.568;2023-01-30T07:59:34;85387.13;;;-0.09;74.00
41312;BME280;27061;41.648;24.568;2023-01-30T08:02:01;85448.47;;;0.43;73.85
41312;BME280;27061;41.648;24.568;2023-01-30T08:04:29;85428.47;;;0.24;73.96
41312;BME280;27061;41.648;24.568;2023-01-30T08:06:56;85467.22;;;0.66;74.19
41312;BME280;27061;41.648;24.568;2023-01-30T08:09:23;85435.53;;;0.43;74.37
41312;BME280;27061;41.648;24.568;2023-01-30T08:11:50;85473.38;;;0.69;74.25
41312;BME280;27061;41.648;24.568;2023-01-30T08:14:17;85425.19;;;0.33;73.84
41312;BME280;27061;41.648;24.568;2023-01-30T08:16:44;85447.84;;;0.46;73.46
41312;BME280;27061;41.648;24.568;2023-01-30T08:19:11;85420.22;;;0.18;73.16
41312;BME280;27061;41.648;24.568;2023-01-30T08:21:38;85451.94;;;0.45;73.22
41312;BME280;27061;41.648;24.568;2023-01-30T08:24:06;85471.44;;;0.73;73.28
41312;BME280;27061;41.648;24.568;2023-01-30T08:26:33;85415.00;;;0.34;73.28
41312;BME280;27061;41.648;24.568;2023-01-30T08:29:00;85439.78;;;0.52;73.40
41312;BME280;27061;41.648;24.568;2023-01-30T08:31:27;85468.06;;;0.77;73.10
41312;BME280;27061;41.648;24.568;2023-01-30T08:33:54;85445.56;;;0.77;73.37
41312;BME280;27061;41.648;24.568;2023-01-30T08:36:21;85430.34;;;0.59;73.53
41312;BME280;27061;41.648;24.568;2023-01-30T08:38:48;85385.75;;;0.36;73.77
41312;BME280;27061;41.648;24.568;2023-01-30T08:41:15;85459.41;;;0.91;74.09
41312;BME280;27061;41.648;24.568;2023-01-30T08:43:42;85395.47;;;0.48;74.08
41312;BME280;27061;41.648;24.568;2023-01-30T08:46:09;85409.09;;;0.50;73.99
41312;BME280;27061;41.648;24.568;2023-01-30T08:48:36;85412.59;;;0.56;74.22
41312;BME280;27061;41.648;24.568;2023-01-30T08:51:16;85396.22;;;0.52;74.25
41312;BME280;27061;41.648;24.568;2023-01-30T08:53:43;85436.84;;;0.86;74.21
41312;BME280;27061;41.648;24.568;2023-01-30T08:56:10;85386.69;;;0.55;74.72
41312;BME280;27061;41.648;24.568;2023-01-30T08:58:37;85374.38;;;0.50;71.71
41312;BME280;27061;41.648;24.568;2023-01-30T09:01:05;85417.63;;;0.74;72.65
41312;BME280;27061;41.648;24.568;2023-01-30T09:03:33;85371.66;;;0.50;72.75
41312;BME280;27061;41.648;24.568;2023-01-30T09:06:00;85400.59;;;0.76;72.97
41312;BME280;27061;41.648;24.568;2023-01-30T09:08:27;85438.34;;;0.95;72.88
41312;BME280;27061;41.648;24.568;2023-01-30T09:11:00;85420.44;;;0.82;73.37
41312;BME280;27061;41.648;24.568;2023-01-30T09:13:27;85421.97;;;0.93;73.80
41312;BME280;27061;41.648;24.568;2023-01-30T09:15:56;85369.06;;;0.60;74.13
41312;BME280;27061;41.648;24.568;2023-01-30T09:18:24;85437.84;;;1.11;73.84
41312;BME280;27061;41.648;24.568;2023-01-30T09:20:51;85439.34;;;1.22;72.38
41312;BME280;27061;41.648;24.568;2023-01-30T09:23:19;85430.97;;;1.06;72.18
41312;BME280;27061;41.648;24.568;2023-01-30T09:25:46;85408.38;;;0.97;73.28
41312;BME280;27061;41.648;24.568;2023-01-30T09:28:13;85373.31;;;0.71;73.53
41312;BME280;27061;41.648;24.568;2023-01-30T09:30:40;85421.50;;;1.11;73.81
41312;BME280;27061;41.648;24.568;2023-01-30T09:33:07;85391.41;;;1.03;73.74
41312;BME280;27061;41.648;24.568;2023-01-30T09:35:34;85398.31;;;1.10;73.33
41312;BME280;27061;41.648;24.568;2023-01-30T09:38:01;85423.75;;;1.29;73.58
41312;BME280;27061;41.648;24.568;2023-01-30T09:40:30;85417.59;;;1.28;73.66
41312;BME280;27061;41.648;24.568;2023-01-30T09:43:10;85414.91;;;1.30;73.42
41312;BME280;27061;41.648;24.568;2023-01-30T09:54:17;85406.09;;;1.36;72.98
41312;BME280;27061;41.648;24.568;2023-01-30T09:57:10;85285.38;;;0.67;73.43
41312;BME280;27061;41.648;24.568;2023-01-30T10:05:59;85369.84;;;1.27;72.17
41312;BME280;27061;41.648;24.568;2023-01-30T10:16:55;85360.97;;;1.23;72.63
41312;BME280;27061;41.648;24.568;2023-01-30T10:20:00;85357.59;;;1.28;73.48
41312;BME280;27061;41.648;24.568;2023-01-30T10:28:29;85349.50;;;1.34;72.95
41312;BME280;27061;41.648;24.568;2023-01-30T10:31:06;85297.31;;;1.00;72.86
41312;BME280;27061;41.648;24.568;2023-01-30T10:39:22;85327.69;;;1.38;73.70
41312;BME280;27061;41.648;24.568;2023-01-30T10:42:06;85281.16;;;1.16;72.42
41312;BME280;27061;41.648;24.568;2023-01-30T10:44:38;85311.34;;;1.38;72.77
41312;BME280;27061;41.648;24.568;2023-01-30T10:47:21;85316.91;;;1.51;73.33
41312;BME280;27061;41.648;24.568;2023-01-30T10:50:01;85315.53;;;1.50;73.16
41312;BME280;27061;41.648;24.568;2023-01-30T11:03:55;85258.84;;;1.36;72.77
41312;BME280;27061;41.648;24.568;2023-01-30T11:06:26;85262.31;;;1.44;73.00
41312;BME280;27061;41.648;24.568;2023-01-30T11:08:54;85284.25;;;1.59;73.09
41312;BME280;27061;41.648;24.568;2023-01-30T11:14:11;85248.69;;;1.48;73.64
41312;BME280;27061;41.648;24.568;2023-01-30T11:16:49;85255.59;;;1.60;74.02
41312;BME280;27061;41.648;24.568;2023-01-30T11:19:22;85219.97;;;1.39;73.72
41312;BME280;27061;41.648;24.568;2023-01-30T11:21:51;85207.78;;;1.48;72.18
41312;BME280;27061;41.648;24.568;2023-01-30T11:24:27;85180.31;;;1.22;73.41
41312;BME280;27061;41.648;24.568;2023-01-30T11:27:29;85237.81;;;1.51;72.07
41312;BME280;27061;41.648;24.568;2023-01-30T11:30:15;85244.75;;;1.66;72.82
41312;BME280;27061;41.648;24.568;2023-01-30T11:32:45;85228.41;;;1.68;72.63
41312;BME280;27061;41.648;24.568;2023-01-30T11:37:43;85188.69;;;1.46;72.63
41312;BME280;27061;41.648;24.568;2023-01-30T11:43:02;85205.16;;;1.61;71.67
41312;BME280;27061;41.648;24.568;2023-01-30T11:45:47;85210.69;;;1.69;71.04
41312;BME280;27061;41.648;24.568;2023-01-30T11:48:21;85185.97;;;1.46;72.67
41312;BME280;27061;41.648;24.568;2023-01-30T11:51:09;85188.78;;;1.61;74.30
41312;BME280;27061;41.648;24.568;2023-01-30T11:53:48;85174.47;;;1.62;74.01
41312;BME280;27061;41.648;24.568;2023-01-30T11:56:19;85208.75;;;1.92;73.69
41312;BME280;27061;41.648;24.568;2023-01-30T11:58:54;85150.56;;;1.57;73.86
41312;BME280;27061;41.648;24.568;2023-01-30T12:01:29;85177.97;;;1.81;73.90
41312;BME280;27061;41.648;24.568;2023-01-30T12:03:58;85153.97;;;1.55;72.75
41312;BME280;27061;41.648;24.568;2023-01-30T12:06:36;85190.34;;;1.94;72.88
41312;BME280;27061;41.648;24.568;2023-01-30T12:09:04;85192.44;;;2.04;73.49
41312;BME280;27061;41.648;24.568;2023-01-30T12:14:41;85180.84;;;2.03;73.19
41312;BME280;27061;41.648;24.568;2023-01-30T12:17:34;85187.66;;;2.00;71.36
41312;BME280;27061;41.648;24.568;2023-01-30T12:20:40;85182.16;;;1.92;70.39
41312;BME280;27061;41.648;24.568;2023-01-30T12:23:17;85172.59;;;1.93;70.57
41312;BME280;27061;41.648;24.568;2023-01-30T12:31:49;85119.13;;;1.45;70.11
41312;BME280;27061;41.648;24.568;2023-01-30T12:34:24;85124.59;;;1.48;70.33
41312;BME280;27061;41.648;24.568;2023-01-30T13:08:09;85139.44;;;1.24;69.98
41312;BME280;27061;41.648;24.568;2023-01-30T13:10:50;85135.97;;;1.16;70.77
41312;BME280;27061;41.648;24.568;2023-01-30T13:13:36;85138.00;;;1.13;70.03
41312;BME280;27061;41.648;24.568;2023-01-30T13:16:54;85136.63;;;1.14;69.44
41312;BME280;27061;41.648;24.568;2023-01-30T13:19:30;85135.88;;;1.03;69.94
41312;BME280;27061;41.648;24.568;2023-01-30T13:22:20;85139.97;;;1.08;71.03
41312;BME280;27061;41.648;24.568;2023-01-30T13:24:58;85132.47;;;1.07;68.42
41312;BME280;27061;41.648;24.568;2023-01-30T13:27:32;85118.78;;;0.99;68.66
41312;BME280;27061;41.648;24.568;2023-01-30T13:30:05;85126.34;;;1.04;68.99
41312;BME280;27061;41.648;24.568;2023-01-30T13:32:39;85135.16;;;1.01;70.27
41312;BME280;27061;41.648;24.568;2023-01-30T13:35:33;85129.75;;;1.05;69.89
41312;BME280;27061;41.648;24.568;2023-01-30T13:38:03;85117.44;;;1.00;69.89
41312;BME280;27061;41.648;24.568;2023-01-30T13:40:38;85124.97;;;1.07;68.65
41312;BME280;27061;41.648;24.568;2023-01-30T13:43:20;85099.59;;;0.83;68.44
41312;BME280;27061;41.648;24.568;2023-01-30T13:45:51;85118.78;;;0.99;68.05
41312;BME280;27061;41.648;24.568;2023-01-30T13:51:47;85120.13;;;0.98;65.93
41312;BME280;27061;41.648;24.568;2023-01-30T13:56:55;85130.25;;;0.85;66.74
41312;BME280;27061;41.648;24.568;2023-01-30T14:13:02;85101.53;;;0.70;66.76
41312;BME280;27061;41.648;24.568;2023-01-30T14:15:27;85110.41;;;0.72;66.62
41312;BME280;27061;41.648;24.568;2023-01-30T14:18:06;85104.31;;;0.74;66.50
41312;BME280;27061;41.648;24.568;2023-01-30T14:20:47;85096.13;;;0.74;66.76
41312;BME280;27061;41.648;24.568;2023-01-30T14:23:31;85085.78;;;0.60;64.79
41312;BME280;27061;41.648;24.568;2023-01-30T14:25:59;85068.00;;;0.51;64.15
41312;BME280;27061;41.648;24.568;2023-01-30T14:31:01;85097.38;;;0.63;65.93
41312;BME280;27061;41.648;24.568;2023-01-30T14:33:47;85092.63;;;0.65;64.41
41312;BME280;27061;41.648;24.568;2023-01-30T14:38:56;85102.09;;;0.58;64.00
41312;BME280;27061;41.648;24.568;2023-01-30T14:41:42;85055.53;;;0.26;63.34
41312;BME280;27061;41.648;24.568;2023-01-30T14:44:09;85065.84;;;0.38;62.62
41312;BME280;27061;41.648;24.568;2023-01-30T14:46:40;85082.22;;;0.42;63.02
41312;BME280;27061;41.648;24.568;2023-01-30T14:49:26;85082.25;;;0.46;63.35
41312;BME280;27061;41.648;24.568;2023-01-30T14:51:55;85056.81;;;0.19;63.00
41312;BME280;27061;41.648;24.568;2023-01-30T14:54:26;85047.22;;;0.10;64.10
41312;BME280;27061;41.648;24.568;2023-01-30T14:57:20;85063.66;;;0.20;64.70
41312;BME280;27061;41.648;24.568;2023-01-30T14:59:58;84995.78;;;-0.30;63.81
41312;BME280;27061;41.648;24.568;2023-01-30T15:02:48;85054.66;;;0.05;63.40
41312;BME280;27061;41.648;24.568;2023-01-30T15:05:19;85081.41;;;0.29;62.44
41312;BME280;27061;41.648;24.568;2023-01-30T15:10:36;85070.38;;;0.13;63.06
41312;BME280;27061;41.648;24.568;2023-01-30T15:32:22;85084.41;;;-0.13;63.04
41312;BME280;27061;41.648;24.568;2023-01-30T15:34:59;85082.25;;;-0.23;63.00
41312;BME280;27061;41.648;24.568;2023-01-30T15:37:36;85100.06;;;-0.10;62.87
41312;BME280;27061;41.648;24.568;2023-01-30T15:50:35;85087.56;;;-0.31;62.45
41312;BME280;27061;41.648;24.568;2023-01-30T15:53:02;85057.38;;;-0.57;62.38
41312;BME280;27061;41.648;24.568;2023-01-30T15:55:33;85086.13;;;-0.40;62.47
41312;BME280;27061;41.648;24.568;2023-01-30T15:58:04;85104.59;;;-0.32;63.20
41312;BME280;27061;41.648;24.568;2023-01-30T16:00:34;85070.94;;;-0.59;63.00
41312;BME280;27061;41.648;24.568;2023-01-30T16:03:10;85074.16;;;-0.73;63.09
41312;BME280;27061;41.648;24.568;2023-01-30T16:05:53;85084.47;;;-0.63;63.13
41312;BME280;27061;41.648;24.568;2023-01-30T16:08:25;85062.44;;;-0.88;62.94
41312;BME280;27061;41.648;24.568;2023-01-30T16:10:53;85051.47;;;-0.94;63.02
41312;BME280;27061;41.648;24.568;2023-01-30T16:13:21;85055.53;;;-0.97;63.65
41312;BME280;27061;41.648;24.568;2023-01-30T16:15:52;85095.28;;;-0.69;64.31
41312;BME280;27061;41.648;24.568;2023-01-30T16:18:30;85074.66;;;-0.89;64.01
41312;BME280;27061;41.648;24.568;2023-01-30T16:21:02;85070.59;;;-0.88;63.39
41312;BME280;27061;41.648;24.568;2023-01-30T16:23:34;85093.94;;;-0.68;63.55
41312;BME280;27061;41.648;24.568;2023-01-30T16:26:04;84999.25;;;-1.40;63.41